Thunder radar more information blitzortung!


Radar de pluja more information rain snow radar


Visita la nostra xarxa de llocs de meteo:

Template documentation
and downloads

And another site



No particular awareness of the weather is required.    There are no Weather-warnings

Pagina Historial Weather Underground text

Diari Resum Juny 16, 2016 Unitats:  Mètric    Imperial   Tant
« Previous Dia
SegĂźent Dia »
Diari Setmana Mensual Anual Personalitzada
  Maxima: Minima: Media:
Temperatura: -17.8 °C -9.5 °C -6.5 °C
Punt de rosada: -17.8 °C -15.4 °C -13.6 °C
Humitat: Humidity % 26 % 45 %
Wind Speed: 0 km/h 6.8 km/h 10.6 km/h
RĂ fegues de vent: 0 km/h - -
Vent:- - SE
Pression baro: 0 hPa 33856.6 hPa -
Precipitacions: 134.62 mm    
Historical Graphs
 
 
Dades de taula per Juny 16, 2016
Temps Temperatura Punt de rosada Pression baro Vent Wind Speed RĂ fegues de vent Humitat Rainfall Rate (Hourly)
-17.8 °C -17.8 °C 0 hPa Calm     Humidity % 0 mm
00:02 -7.4 °C -11.5 °C 33856.6 hPa ENE 7.6 km/h 7.6 km/h 62 % 0 mm
00:05 -9.2 °C -12.7 °C 33890.5 hPa ESE 7.7 km/h 15.6 km/h 66 % 0 mm
00:15 -9.2 °C -12.7 °C 33890.5 hPa ESE 7.7 km/h 15.6 km/h 66 % 0 mm
00:25 -9.2 °C -12.7 °C 33890.5 hPa ESE 7.7 km/h 15.6 km/h 66 % 0 mm
00:35 -9.3 °C -12.7 °C 33890.5 hPa ESE 7.7 km/h 15.6 km/h 67 % 0 mm
00:45 -9.2 °C -12.8 °C 33890.5 hPa ESE 7.7 km/h 15.6 km/h 65 % 0 mm
00:55 -9.1 °C -12.7 °C 33890.5 hPa ESE 7.7 km/h 15.6 km/h 65 % 0 mm
01:05 -9.2 °C -12.8 °C 33890.5 hPa ESE 7.7 km/h 15.6 km/h 65 % 0 mm
01:15 -9.1 °C -12.9 °C 33890.5 hPa ESE 7.7 km/h 15.6 km/h 64 % 0 mm
01:25 -9.1 °C -12.9 °C 33890.5 hPa ESE 7.7 km/h 15.6 km/h 63 % 0 mm
01:35 -9 °C -13 °C 33924.3 hPa ESE 7.7 km/h 15.6 km/h 62 % 0 mm
01:45 -8.9 °C -13.1 °C 33924.3 hPa ESE 7.7 km/h 15.6 km/h 61 % 0 mm
01:55 -9 °C -13.2 °C 33924.3 hPa ESE 7.7 km/h 15.6 km/h 61 % 0 mm
02:05 -9.1 °C -13.2 °C 33924.3 hPa ESE 7.7 km/h 15.6 km/h 61 % 134.62 mm
02:15 -8.9 °C -13.2 °C 33958.2 hPa ESE 7.7 km/h 15.6 km/h 60 % 134.62 mm
02:25 -8.8 °C -13.4 °C 33958.2 hPa ESE 7.7 km/h 15.6 km/h 58 % 0 mm
02:35 -8.7 °C -13.3 °C 33924.3 hPa ESE 7.7 km/h 15.6 km/h 58 % 0 mm
02:45 -8.6 °C -13.2 °C 33924.3 hPa ESE 7.7 km/h 15.6 km/h 58 % 0 mm
02:55 -8.4 °C -13.2 °C 33924.3 hPa ESE 7.7 km/h 15.6 km/h 57 % 0 mm
03:05 -8.3 °C -13.6 °C 33924.3 hPa ESE 7.7 km/h 15.6 km/h 54 % 0 mm
03:15 -8.2 °C -13.6 °C 33924.3 hPa ESE 7.7 km/h 15.6 km/h 53 % 0 mm
03:25 -8.1 °C -13.5 °C 33924.3 hPa ESE 7.7 km/h 15.6 km/h 53 % 0 mm
03:35 -8.1 °C -13.4 °C 33924.3 hPa ESE 7.7 km/h 15.6 km/h 53 % 0 mm
03:45 -8.1 °C -13.4 °C 33958.2 hPa ESE 7.7 km/h 15.6 km/h 53 % 0 mm
03:55 -8.1 °C -13.5 °C 33958.2 hPa ESE 7.7 km/h 15.6 km/h 53 % 0 mm
04:05 -8.2 °C -13.7 °C 33958.2 hPa ESE 7.7 km/h 15.6 km/h 52 % 0 mm
04:15 -8.1 °C -13.4 °C 33958.2 hPa ESE 7.7 km/h 15.6 km/h 53 % 0 mm
04:25 -7.9 °C -13.5 °C 33958.2 hPa ESE 7.7 km/h 15.6 km/h 52 % 0 mm
04:35 -7.7 °C -13.4 °C 33958.2 hPa ESE 7.7 km/h 15.6 km/h 51 % 0 mm
04:45 -7.5 °C -13.4 °C 33958.2 hPa ESE 7.7 km/h 15.6 km/h 50 % 0 mm
04:55 -7.2 °C -13.1 °C 33958.2 hPa ESE 7.7 km/h 15.6 km/h 50 % 0 mm
05:05 -7.1 °C -13.2 °C 33958.2 hPa ESE 7.7 km/h 15.6 km/h 49 % 0 mm
10:08 -6.9 °C -13.2 °C 33958.2 hPa ENE 15 km/h 15 km/h 48 % 0 mm
10:13 -6.8 °C -13.1 °C 33958.2 hPa ENE 7.6 km/h 7.6 km/h 48 % 0 mm
10:18 -6.6 °C -13.1 °C 33958.2 hPa ENE 7.6 km/h 7.6 km/h 47 % 0 mm
10:23 -6.7 °C -13.3 °C 33958.2 hPa ENE 7.6 km/h 7.6 km/h 46 % 0 mm
10:28 -6.7 °C -13.4 °C 33958.2 hPa ENE 7.6 km/h 7.6 km/h 46 % 0 mm
10:33 -6.7 °C -13.3 °C 33958.2 hPa ENE 7.6 km/h 7.6 km/h 46 % 0 mm
10:38 -6.8 °C -13.8 °C 33958.2 hPa ENE 7.6 km/h 7.6 km/h 44 % 0 mm
10:43 -6.7 °C -13.7 °C 33958.2 hPa ENE 7.6 km/h 7.6 km/h 44 % 0 mm
10:48 -6.7 °C -13.7 °C 33958.2 hPa ENE 7.6 km/h 7.6 km/h 44 % 0 mm
10:53 -6.5 °C -13.5 °C 33958.2 hPa ENE 7.6 km/h 7.6 km/h 44 % 0 mm
10:58 -6.4 °C -13.5 °C 33992.1 hPa ENE 7.6 km/h 7.6 km/h 44 % 0 mm
11:03 -6.4 °C -13.7 °C 33992.1 hPa ENE 7.6 km/h 7.6 km/h 43 % 0 mm
11:08 -6.2 °C -13.3 °C 33992.1 hPa ENE 7.6 km/h 7.6 km/h 44 % 0 mm
11:14 -6.3 °C -13.6 °C 33958.2 hPa ENE 7.6 km/h 7.6 km/h 43 % 0 mm
11:19 -6.3 °C -13.5 °C 33958.2 hPa ENE 7.6 km/h 7.6 km/h 43 % 0 mm
11:24 -6.1 °C -13.8 °C 33958.2 hPa ENE 7.6 km/h 7.6 km/h 41 % 0 mm
11:29 -5.9 °C -13.4 °C 33992.1 hPa ENE 7.6 km/h 7.6 km/h 42 % 0 mm
11:34 -5.9 °C -13.6 °C 33992.1 hPa ENE 7.6 km/h 7.6 km/h 41 % 0 mm
11:39 -6.1 °C -13.8 °C 33992.1 hPa ENE 7.6 km/h 7.6 km/h 41 % 0 mm
11:44 -6.1 °C -13.9 °C 34029.3 hPa ENE 7.6 km/h 7.6 km/h 40 % 0 mm
11:49 -5.9 °C -13.8 °C 34029.3 hPa ENE 7.6 km/h 7.6 km/h 40 % 0 mm
11:54 -5.8 °C -13.7 °C 34029.3 hPa ENE 7.6 km/h 7.6 km/h 40 % 0 mm
11:59 -5.8 °C -13.7 °C 33992.1 hPa ENE 7.6 km/h 7.6 km/h 40 % 0 mm
12:04 -5.8 °C -13.9 °C 33992.1 hPa ENE 7.6 km/h 7.6 km/h 39 % 0 mm
12:09 -5.8 °C -13.8 °C 33992.1 hPa ENE 7.6 km/h 7.6 km/h 39 % 0 mm
12:14 -5.7 °C -13.6 °C 33992.1 hPa ENE 7.6 km/h 7.6 km/h 40 % 0 mm
12:19 -5.8 °C -13.9 °C 33992.1 hPa ENE 7.6 km/h 7.6 km/h 39 % 0 mm
12:24 -5.5 °C -13.6 °C 33992.1 hPa ENE 7.6 km/h 7.6 km/h 39 % 0 mm
12:29 -5.4 °C -13.7 °C 33992.1 hPa ENE 7.6 km/h 7.6 km/h 38 % 0 mm
12:34 -5.2 °C -13.8 °C 33992.1 hPa ENE 7.6 km/h 7.6 km/h 37 % 0 mm
12:39 -5.2 °C -13.7 °C 33992.1 hPa ENE 7.6 km/h 7.6 km/h 37 % 0 mm
12:44 -5 °C -13.6 °C 33992.1 hPa ENE 7.6 km/h 7.6 km/h 37 % 0 mm
12:49 -4.8 °C -13.7 °C 33992.1 hPa ENE 7.6 km/h 7.6 km/h 36 % 0 mm
12:54 -4.9 °C -13.9 °C 33992.1 hPa ENE 7.6 km/h 7.6 km/h 35 % 0 mm
12:59 -5.1 °C -13.9 °C 33992.1 hPa ENE 7.6 km/h 7.6 km/h 36 % 0 mm
13:04 -4.8 °C -13.7 °C 33992.1 hPa ENE 7.6 km/h 7.6 km/h 36 % 0 mm
13:09 -4.7 °C -13.6 °C 33992.1 hPa ENE 7.6 km/h 7.6 km/h 36 % 0 mm
13:14 -5.1 °C -13.8 °C 33992.1 hPa ENE 7.6 km/h 7.6 km/h 36 % 0 mm
13:19 -5.1 °C -13.9 °C 33992.1 hPa ENE 7.6 km/h 7.6 km/h 36 % 0 mm
13:24 -4.5 °C -13.6 °C 33992.1 hPa ENE 7.6 km/h 7.6 km/h 35 % 0 mm
13:29 -4.4 °C -13.5 °C 33992.1 hPa ENE 7.6 km/h 7.6 km/h 35 % 0 mm
13:34 -4.6 °C -14.4 °C 33992.1 hPa ENE 7.6 km/h 7.6 km/h 32 % 0 mm
13:39 -4.7 °C -14.2 °C 33992.1 hPa ENE 7.6 km/h 7.6 km/h 33 % 0 mm
13:44 -4.7 °C -14.2 °C 33958.2 hPa ENE 7.6 km/h 7.6 km/h 33 % 0 mm
13:49 -4.9 °C -14.7 °C 33958.2 hPa ENE 7.6 km/h 7.6 km/h 32 % 0 mm
13:54 -4.7 °C -14.5 °C 33958.2 hPa ENE 7.6 km/h 7.6 km/h 32 % 0 mm
13:59 -4.9 °C -14.7 °C 33958.2 hPa ENE 7.6 km/h 7.6 km/h 32 % 0 mm
14:04 -5 °C -14.8 °C 33958.2 hPa ENE 7.6 km/h 7.6 km/h 32 % 0 mm
14:09 -4.9 °C -14.7 °C 33958.2 hPa ENE 7.6 km/h 7.6 km/h 32 % 0 mm
14:14 -4.7 °C -14.7 °C 33992.1 hPa ENE 7.6 km/h 7.6 km/h 31 % 0 mm
14:19 -4.8 °C -14.8 °C 33992.1 hPa ENE 7.6 km/h 7.6 km/h 31 % 0 mm
14:24 -4.4 °C -14.8 °C 33992.1 hPa ENE 7.6 km/h 7.6 km/h 30 % 0 mm
14:29 -4.2 °C -14.6 °C 33992.1 hPa ENE 7.6 km/h 7.6 km/h 30 % 0 mm
14:34 -4.1 °C -14.3 °C 33992.1 hPa ENE 7.6 km/h 7.6 km/h 31 % 0 mm
14:39 -4.1 °C -14.2 °C 33992.1 hPa ENE 7.6 km/h 7.6 km/h 31 % 0 mm
14:49 -3.8 °C -14.2 °C 33958.2 hPa ENE 7.6 km/h 7.6 km/h 30 % 0 mm
14:54 -3.8 °C -14.3 °C 33958.2 hPa ENE 7.6 km/h 7.6 km/h 30 % 0 mm
14:59 -3.7 °C -14.1 °C 33958.2 hPa ENE 7.6 km/h 7.6 km/h 30 % 0 mm
15:04 -4 °C -14.4 °C 33958.2 hPa ENE 7.6 km/h 7.6 km/h 30 % 0 mm
15:09 -3.9 °C -14.4 °C 33958.2 hPa ENE 7.6 km/h 7.6 km/h 30 % 0 mm
15:14 -3.9 °C -14.4 °C 33958.2 hPa ENE 7.6 km/h 7.6 km/h 30 % 0 mm
15:19 -3.9 °C -14.9 °C 33958.2 hPa ENE 7.6 km/h 7.6 km/h 28 % 0 mm
15:24 -3.8 °C -14.8 °C 33958.2 hPa ENE 7.6 km/h 7.6 km/h 28 % 0 mm
15:29 -4.2 °C -14.9 °C 33958.2 hPa ENE 7.6 km/h 7.6 km/h 29 % 0 mm
15:34 -4.4 °C -15.1 °C 33958.2 hPa ENE 7.6 km/h 7.6 km/h 29 % 0 mm
15:39 -4.4 °C -15.1 °C 33958.2 hPa ENE 7.6 km/h 7.6 km/h 29 % 0 mm
15:44 -4.3 °C -14.9 °C 33958.2 hPa ENE 7.6 km/h 7.6 km/h 29 % 0 mm
15:49 -4.6 °C -15.2 °C 33958.2 hPa ENE 7.6 km/h 7.6 km/h 29 % 0 mm
15:54 -4.2 °C -14.9 °C 33958.2 hPa ENE 7.6 km/h 7.6 km/h 29 % 0 mm
15:59 -4.4 °C -15.4 °C 33992.1 hPa ENE 7.6 km/h 7.6 km/h 28 % 0 mm
16:04 -4.3 °C -14.9 °C 33992.1 hPa ENE 7.6 km/h 7.6 km/h 29 % 0 mm
16:09 -4 °C -14.7 °C 33992.1 hPa ENE 7.6 km/h 7.6 km/h 29 % 0 mm
16:14 -4.1 °C -14.8 °C 33992.1 hPa ENE 7.6 km/h 7.6 km/h 29 % 0 mm
16:19 -4.2 °C -14.8 °C 33992.1 hPa ENE 7.6 km/h 7.6 km/h 29 % 0 mm
16:24 -3.8 °C -14.8 °C 33992.1 hPa ENE 7.6 km/h 7.6 km/h 28 % 0 mm
16:29 -3.9 °C -15.2 °C 33992.1 hPa ENE 7.6 km/h 7.6 km/h 27 % 0 mm
16:39 -3.6 °C -14.9 °C 33992.1 hPa ENE 7.6 km/h 7.6 km/h 27 % 0 mm
16:44 -3.6 °C -14.9 °C 33992.1 hPa ENE 7.6 km/h 7.6 km/h 27 % 0 mm
16:54 -3.4 °C -14.8 °C 33992.1 hPa ENE 7.6 km/h 7.6 km/h 27 % 0 mm
16:59 -3.7 °C -14.9 °C 33992.1 hPa ENE 7.6 km/h 7.6 km/h 27 % 0 mm
17:04 -3.7 °C -15.3 °C 33992.1 hPa ENE 7.6 km/h 7.6 km/h 26 % 0 mm
17:09 -3.9 °C -15.4 °C 33992.1 hPa WSW 26.9 km/h 26.9 km/h 26 % 0 mm
17:14 -3.6 °C -15.2 °C 33992.1 hPa West 20.9 km/h 20.9 km/h 26 % 0 mm
17:19 -3.7 °C -15.3 °C 33992.1 hPa WSW 20.9 km/h 20.9 km/h 26 % 0 mm
17:24 -3.8 °C -15.4 °C 33992.1 hPa WNW 44.7 km/h 44.7 km/h 26 % 0 mm
17:29 -3.7 °C -15.3 °C 33992.1 hPa West 20.9 km/h 20.9 km/h 26 % 0 mm
17:34 -3.7 °C -15.3 °C 33992.1 hPa WSW 26.9 km/h 26.9 km/h 26 % 0 mm
17:39 -3.7 °C -15.3 °C 33992.1 hPa West 29.8 km/h 29.8 km/h 26 % 0 mm
17:44 -3.8 °C -15.4 °C 33958.2 hPa SW 29.8 km/h 29.8 km/h 26 % 0 mm
17:49 -3.7 °C -15.3 °C 33958.2 hPa West 23.8 km/h 23.8 km/h 26 % 0 mm
17:54 -3.6 °C -15.2 °C 33958.2 hPa WSW 17.9 km/h 17.9 km/h 26 % 0 mm
17:59 -3.7 °C -15.3 °C 33992.1 hPa WSW 27.7 km/h 27.7 km/h 26 % 0 mm
18:04 -3.7 °C -15.3 °C 33992.1 hPa WNW 20.9 km/h 20.9 km/h 26 % 0 mm
18:09 -3.8 °C -15.4 °C 33992.1 hPa WSW 23.8 km/h 24.3 km/h 26 % 0 mm
18:14 -3.8 °C -15.4 °C 33992.1 hPa SSW 26.9 km/h 26.9 km/h 26 % 0 mm
18:19 -3.9 °C -15.2 °C 33992.1 hPa SW 26.9 km/h 26.9 km/h 27 % 0 mm
18:24 -4 °C -15.3 °C 33992.1 hPa WSW 14.5 km/h 14.5 km/h 27 % 0 mm
18:29 -4 °C -14.9 °C 33992.1 hPa West 27.7 km/h 27.7 km/h 28 % 0 mm
18:34 -4.6 °C -14.7 °C 33992.1 hPa SW 26.9 km/h 26.9 km/h 31 % 0 mm
18:39 -5.1 °C -14.6 °C 33992.1 hPa SW 32.8 km/h 32.8 km/h 33 % 0 mm
18:44 -5.4 °C -14.4 °C 33992.1 hPa East 32.8 km/h 32.8 km/h 35 % 0 mm
18:49 -5.7 °C -14.2 °C 33992.1 hPa SW 26.9 km/h 26.9 km/h 37 % 0 mm
18:54 -5.7 °C -14 °C 33992.1 hPa SW 26.9 km/h 26.9 km/h 38 % 0 mm
18:59 -5.6 °C -13.7 °C 33992.1 hPa SW 32.8 km/h 32.8 km/h 39 % 0 mm
19:04 -5.5 °C -13.6 °C 33992.1 hPa SSW 29.8 km/h 29.8 km/h 39 % 0 mm
19:05 -8 °C -11.8 °C 34198.6 hPa WSW 7.7 km/h 15.6 km/h 64 % 0 mm
19:09 -5.6 °C -13.4 °C 33992.1 hPa SSW 32.8 km/h 32.8 km/h 40 % 0 mm
19:14 -5.7 °C -13.6 °C 33992.1 hPa SW 20.3 km/h 20.3 km/h 40 % 0 mm
19:15 -8.1 °C -11.9 °C 34198.6 hPa SSE 7.7 km/h 15.6 km/h 64 % 0 mm
19:19 -5.9 °C -13.4 °C 33992.1 hPa SSW 20.9 km/h 20.9 km/h 42 % 0 mm
19:24 -5.9 °C -13 °C 33992.1 hPa SSE 33.6 km/h 33.6 km/h 44 % 0 mm
19:25 -8.2 °C -12 °C 34198.6 hPa ESE 7.7 km/h 15.6 km/h 64 % 0 mm
19:29 -6.1 °C -12.9 °C 34029.3 hPa SSW 9.8 km/h 19.2 km/h 45 % 0 mm
19:34 -6.2 °C -12.7 °C 34029.3 hPa SSW 11.1 km/h 11.1 km/h 47 % 0 mm
19:35 -8.2 °C -12.1 °C 34198.6 hPa ESE 7.7 km/h 15.6 km/h 63 % 0 mm
19:39 -6.2 °C -12.3 °C 34029.3 hPa SSW 26.4 km/h 26.4 km/h 49 % 0 mm
19:44 -6.2 °C -12.3 °C 33992.1 hPa South 26.9 km/h 26.9 km/h 49 % 0 mm
19:45 -8.2 °C -12.1 °C 34164.7 hPa ESE 7.7 km/h 15.6 km/h 63 % 0 mm
19:49 -6.2 °C -12.4 °C 33992.1 hPa SW 12.7 km/h 17.4 km/h 49 % 0 mm
19:54 -6.3 °C -12.4 °C 33992.1 hPa SW 12.7 km/h 17.4 km/h 49 % 0 mm
19:55 -8.3 °C -12.3 °C 34164.7 hPa ESE 7.7 km/h 15.6 km/h 62 % 0 mm
19:59 -6.3 °C -12.3 °C 34029.3 hPa SW 12.7 km/h 17.4 km/h 50 % 0 mm
20:04 -6.3 °C -12.3 °C 34029.3 hPa WSW 11.9 km/h 17.9 km/h 50 % 0 mm
20:05 -8.4 °C -12.3 °C 34198.6 hPa ESE 7.7 km/h 15.6 km/h 63 % 0 mm
20:09 -6.3 °C -12.3 °C 34029.3 hPa WSW 32.8 km/h 32.8 km/h 50 % 0 mm
20:15 -8.5 °C -12.3 °C 34198.6 hPa ESE 7.7 km/h 15.6 km/h 64 % 0 mm
20:19 -6.4 °C -12.2 °C 34063.2 hPa SW 9.8 km/h 16.6 km/h 51 % 0 mm
20:25 -8.6 °C -12.3 °C 34198.6 hPa ESE 7.7 km/h 15.6 km/h 64 % 0 mm
20:29 -6.4 °C -12.1 °C 34063.2 hPa SW 9.8 km/h 16.6 km/h 52 % 0 mm
20:34 -6.4 °C -12.1 °C 34063.2 hPa SW 9.8 km/h 16.6 km/h 52 % 0 mm
20:35 -8.6 °C -12.4 °C 34164.7 hPa ESE 7.7 km/h 15.6 km/h 64 % 0 mm
20:39 -6.4 °C -12.3 °C 34063.2 hPa SW 9.8 km/h 16.6 km/h 51 % 0 mm
20:44 -6.4 °C -12.3 °C 34063.2 hPa SW 9.8 km/h 16.6 km/h 51 % 0 mm
20:45 -8.6 °C -12.4 °C 34198.6 hPa ESE 7.7 km/h 15.6 km/h 64 % 0 mm
20:49 -6.5 °C -12.3 °C 34063.2 hPa SW 9.8 km/h 16.6 km/h 51 % 0 mm
20:54 -6.6 °C -12.4 °C 34063.2 hPa SW 9.8 km/h 16.6 km/h 51 % 0 mm
20:55 -8.6 °C -12.7 °C 34198.6 hPa ESE 7.7 km/h 15.6 km/h 62 % 0 mm
20:59 -6.6 °C -12.4 °C 34063.2 hPa SW 9.8 km/h 16.6 km/h 51 % 0 mm
21:04 -6.6 °C -12.4 °C 34063.2 hPa SW 9.8 km/h 16.6 km/h 51 % 0 mm
21:05 -8.7 °C -13 °C 34198.6 hPa ESE 7.7 km/h 15.6 km/h 60 % 0 mm
21:07 -6.6 °C -12.6 °C 34063.2 hPa SW 9.8 km/h 16.6 km/h 50 % 0 mm
21:12 -6.6 °C -12.6 °C 34063.2 hPa SW 9.8 km/h 16.6 km/h 50 % 0 mm
21:13 -6.6 °C -12.6 °C 34063.2 hPa SW 9.8 km/h 16.6 km/h 50 % 0 mm
21:15 -8.8 °C -13.2 °C 34198.6 hPa ESE 7.7 km/h 15.6 km/h 59 % 0 mm
21:16 -6.7 °C -12.6 °C 34063.2 hPa SW 9.8 km/h 16.6 km/h 50 % 0 mm
21:21 -6.7 °C -12.7 °C 34063.2 hPa SW 9.8 km/h 16.6 km/h 50 % 0 mm
21:22 -6.7 °C -12.7 °C 34063.2 hPa SW 9.8 km/h 16.6 km/h 50 % 0 mm
21:23 -6.7 °C -12.7 °C 34063.2 hPa SW 9.8 km/h 16.6 km/h 50 % 0 mm
21:25 -8.9 °C -13.5 °C 34198.6 hPa ESE 7.7 km/h 15.6 km/h 58 % 0 mm
21:27 -6.8 °C -12.7 °C 34063.2 hPa SW 9.8 km/h 16.6 km/h 50 % 0 mm
21:29 -6.8 °C -12.7 °C 34097 hPa SW 9.8 km/h 16.6 km/h 50 % 0 mm
21:31 -6.8 °C -12.7 °C 34097 hPa SW 9.8 km/h 16.6 km/h 50 % 0 mm
21:34 -6.8 °C -12.7 °C 34097 hPa SW 9.8 km/h 16.6 km/h 50 % 0 mm
21:35 -9.1 °C -13.8 °C 34198.6 hPa ESE 7.7 km/h 15.6 km/h 57 % 0 mm
21:39 -6.8 °C -12.8 °C 34097 hPa SW 9.8 km/h 16.6 km/h 50 % 0 mm
21:45 -9.2 °C -13.9 °C 34222.3 hPa ESE 7.7 km/h 15.6 km/h 57 % 0 mm
21:46 -6.9 °C -12.8 °C 34097 hPa SW 9.8 km/h 16.6 km/h 50 % 0 mm
21:49 -6.9 °C -12.8 °C 34097 hPa SW 9.8 km/h 16.6 km/h 50 % 0 mm
21:54 -6.9 °C -12.9 °C 34097 hPa SW 9.8 km/h 16.6 km/h 50 % 0 mm
21:55 -9.2 °C -13.7 °C 34222.3 hPa ESE 7.7 km/h 15.6 km/h 58 % 0 mm
21:56 -6.9 °C -12.9 °C 34097 hPa SW 9.8 km/h 16.6 km/h 50 % 0 mm
21:57 -6.9 °C -12.9 °C 34097 hPa SW 9.8 km/h 16.6 km/h 50 % 0 mm
22:01 -7 °C -12.8 °C 34097 hPa SW 9.8 km/h 16.6 km/h 51 % 0 mm
22:02 -7.1 °C -13 °C 34097 hPa SW 9.8 km/h 16.6 km/h 50 % 0 mm
22:03 -7.1 °C -12.8 °C 34097 hPa SW 9.8 km/h 16.6 km/h 51 % 0 mm
22:05 -9.2 °C -13.8 °C 34222.3 hPa ESE 7.7 km/h 15.6 km/h 58 % 0 mm
22:06 -7.1 °C -12.9 °C 34097 hPa SW 9.8 km/h 16.6 km/h 51 % 0 mm
22:08 -7.1 °C -12.9 °C 34097 hPa SW 9.8 km/h 16.6 km/h 51 % 0 mm
22:13 -7.2 °C -12.9 °C 34130.9 hPa SW 9.8 km/h 16.6 km/h 51 % 0 mm
22:15 -9.1 °C -13.8 °C 34198.6 hPa ESE 7.7 km/h 15.6 km/h 57 % 0 mm
22:18 -7.2 °C -12.8 °C 34130.9 hPa SW 9.8 km/h 16.6 km/h 52 % 0 mm
22:23 -7.3 °C -12.8 °C 34130.9 hPa WSW 9 km/h 9 km/h 53 % 0 mm
22:25 -9.1 °C -13.8 °C 34198.6 hPa ESE 7.7 km/h 15.6 km/h 57 % 0 mm
22:28 -7.3 °C -12.8 °C 34130.9 hPa SW 9 km/h 9 km/h 53 % 0 mm
22:33 -7.4 °C -12.7 °C 34130.9 hPa WSW 6.8 km/h 7.6 km/h 54 % 0 mm
22:35 -9.3 °C -13.8 °C 34198.6 hPa ESE 7.7 km/h 15.6 km/h 58 % 0 mm
22:38 -7.4 °C -12.7 °C 34130.9 hPa WSW 6.8 km/h 7.6 km/h 54 % 0 mm
22:43 -7.5 °C -12.6 °C 34130.9 hPa WSW 6.8 km/h 7.6 km/h 55 % 0 mm
22:45 -9.4 °C -14.1 °C 34222.3 hPa ESE 7.7 km/h 15.6 km/h 57 % 0 mm
22:48 -7.6 °C -12.6 °C 34130.9 hPa WSW 6.8 km/h 7.6 km/h 56 % 0 mm
22:53 -7.6 °C -12.6 °C 34130.9 hPa WSW 6.8 km/h 7.6 km/h 56 % 0 mm
22:55 -9.3 °C -14.2 °C 34222.3 hPa ESE 7.7 km/h 15.6 km/h 56 % 0 mm
22:58 -7.6 °C -12.6 °C 34130.9 hPa WSW 6.8 km/h 7.6 km/h 56 % 0 mm
23:03 -7.7 °C -12.4 °C 34130.9 hPa WSW 6.8 km/h 7.6 km/h 57 % 0 mm
23:05 -9.3 °C -14.2 °C 34222.3 hPa ESE 7.7 km/h 15.6 km/h 56 % 0 mm
23:08 -7.7 °C -12.3 °C 34130.9 hPa WSW 6.8 km/h 7.6 km/h 58 % 0 mm
23:13 -7.7 °C -12.4 °C 34164.7 hPa WSW 6.8 km/h 7.6 km/h 58 % 0 mm
23:15 -9.2 °C -14.1 °C 34222.3 hPa ESE 7.7 km/h 15.6 km/h 56 % 0 mm
23:18 -7.7 °C -12.3 °C 34164.7 hPa WSW 6.8 km/h 7.6 km/h 59 % 0 mm
23:23 -7.7 °C -12.3 °C 34164.7 hPa WSW 6.8 km/h 7.6 km/h 59 % 0 mm
23:25 -9.3 °C -14.3 °C 34222.3 hPa ESE 7.7 km/h 15.6 km/h 55 % 0 mm
23:28 -7.8 °C -12.2 °C 34198.6 hPa WSW 6.8 km/h 7.6 km/h 60 % 0 mm
23:35 -9.4 °C -14.4 °C 34222.3 hPa ESE 7.7 km/h 15.6 km/h 55 % 0 mm
23:38 -7.8 °C -12.1 °C 34198.6 hPa WSW 6.8 km/h 7.6 km/h 61 % 0 mm
23:43 -7.9 °C -12.1 °C 34198.6 hPa WSW 6.8 km/h 7.6 km/h 61 % 0 mm
23:45 -9.4 °C -14.4 °C 34222.3 hPa ESE 7.7 km/h 15.6 km/h 55 % 0 mm
23:48 -7.9 °C -12.1 °C 34198.6 hPa WSW 6.8 km/h 7.6 km/h 62 % 0 mm
23:53 -8 °C -12 °C 34198.6 hPa WSW 6.8 km/h 7.6 km/h 63 % 0 mm
23:55 -9.5 °C -14.5 °C 34222.3 hPa ESE 7.7 km/h 15.6 km/h 55 % 0 mm
23:58 -8 °C -12 °C 34198.6 hPa WSW 6.8 km/h 7.6 km/h 63 % 0 mm
Meteo Sesrovires
Elogis d' Weather Underground - 2 mb

Guio original per  Jim McMurry - jmcmurry@mwt.net Adaptat per a la plantilla per  Wim van der Kuil - Leuven-Template.eu

Trobareu la nostra informacio del temps tambe a:

Weather Underground

AWEKAS